Terminal Aerodrome Forecast
Issued by NWS

Home | Current Version | Previous Version | Graphics & Text | Print | Product List | Glossary On
Versions: 1 2 3 4 5 6 7 8 9 10 11 12 13 14 15 16 17
000
FTUS43 KICT 011140
TAFHUT
TAF
KHUT 011140Z 0112/0212 13008KT P6SM SCT250
      TEMPO 0113/0115 4SM BR BKN006
     FM011500 16016G24KT P6SM SCT012
     FM011700 17024G34KT P6SM SCT050
     FM020600 35012KT P6SM BKN150=

USA.gov is the U.S. government's official web portal to all federal, state and local government web resources and services.